createdAt,value
2018-06-09T00:00:40.200Z,998.56
2018-06-09T00:01:20.695Z,998.53
2018-06-09T00:02:01.199Z,998.56
2018-06-09T00:02:41.796Z,998.57
2018-06-09T00:03:22.245Z,998.56
2018-06-09T00:04:02.729Z,998.56
2018-06-09T00:04:43.251Z,998.53
2018-06-09T00:05:23.737Z,998.57
2018-06-09T00:06:04.249Z,998.54
2018-06-09T00:06:44.750Z,998.51
2018-06-09T00:07:25.241Z,998.49
2018-06-09T00:08:05.821Z,998.53
2018-06-09T00:08:46.238Z,998.5
2018-06-09T00:09:26.741Z,998.47
2018-06-09T00:10:07.257Z,998.44
2018-06-09T00:10:47.753Z,998.48
2018-06-09T00:11:28.231Z,998.46
2018-06-09T00:12:08.742Z,998.46
2018-06-09T00:12:49.277Z,998.45
2018-06-09T00:13:29.773Z,998.43
2018-06-09T00:14:10.251Z,998.48
2018-06-09T00:14:50.762Z,998.48
2018-06-09T00:15:31.243Z,998.48
2018-06-09T00:16:11.733Z,998.48
2018-06-09T00:16:52.203Z,998.44
2018-06-09T00:17:32.714Z,998.42
2018-06-09T00:18:13.224Z,998.43
2018-06-09T00:18:53.740Z,998.39
2018-06-09T00:19:34.294Z,998.41
2018-06-09T00:20:14.806Z,998.41
2018-06-09T00:20:55.290Z,998.42
2018-06-09T00:21:35.787Z,998.41
2018-06-09T00:22:16.303Z,998.44
2018-06-09T00:22:56.869Z,998.42
2018-06-09T00:23:37.373Z,998.44
2018-06-09T00:24:17.851Z,998.46
2018-06-09T00:24:58.344Z,998.41
2018-06-09T00:25:38.835Z,998.43
2018-06-09T00:26:19.334Z,998.36
2018-06-09T00:26:59.893Z,998.39
2018-06-09T00:27:40.352Z,998.37
2018-06-09T00:28:20.833Z,998.37
2018-06-09T00:29:01.310Z,998.36
2018-06-09T00:29:41.837Z,998.36
2018-06-09T00:30:22.302Z,998.32
2018-06-09T00:31:02.813Z,998.34
2018-06-09T00:31:43.261Z,998.3
2018-06-09T00:32:23.830Z,998.31
2018-06-09T00:33:04.290Z,998.26
2018-06-09T00:33:44.838Z,998.32
2018-06-09T00:34:25.289Z,998.32
2018-06-09T00:35:05.763Z,998.29
2018-06-09T00:35:46.305Z,998.3
2018-06-09T00:36:26.820Z,998.26
2018-06-09T00:37:07.291Z,998.32
2018-06-09T00:37:47.761Z,998.32
2018-06-09T00:38:28.270Z,998.35
2018-06-09T00:39:08.765Z,998.37
2018-06-09T00:39:49.225Z,998.33
2018-06-09T00:40:29.746Z,998.36
2018-06-09T00:41:10.362Z,998.39
2018-06-09T00:41:50.872Z,998.35
2018-06-09T00:42:31.388Z,998.35
2018-06-09T00:43:12.119Z,998.36
2018-06-09T00:43:52.666Z,998.34
2018-06-09T00:44:33.123Z,998.38
2018-06-09T00:45:13.681Z,998.42
2018-06-09T00:45:54.214Z,998.4
2018-06-09T00:46:34.717Z,998.36
2018-06-09T00:47:15.226Z,998.36
2018-06-09T00:47:55.722Z,998.38
2018-06-09T00:48:36.242Z,998.36
2018-06-09T00:49:16.735Z,998.35
2018-06-09T00:49:57.240Z,998.4
2018-06-09T00:50:37.787Z,998.39
2018-06-09T00:51:18.252Z,998.38
2018-06-09T00:51:58.768Z,998.36
2018-06-09T00:52:39.223Z,998.35
2018-06-09T00:53:19.742Z,998.4
2018-06-09T00:54:00.228Z,998.4
2018-06-09T00:54:40.716Z,998.37
2018-06-09T00:55:21.244Z,998.37
2018-06-09T00:56:01.752Z,998.37
2018-06-09T00:56:42.257Z,998.41
2018-06-09T00:57:22.797Z,998.42
2018-06-09T00:58:03.257Z,998.39
2018-06-09T00:58:43.759Z,998.49
2018-06-09T00:59:24.292Z,998.49
2018-06-09T01:00:04.774Z,998.44
2018-06-09T01:00:45.370Z,998.46
2018-06-09T01:01:25.893Z,998.47
2018-06-09T01:02:06.404Z,998.47
2018-06-09T01:02:46.885Z,998.49
2018-06-09T01:03:27.436Z,998.44
2018-06-09T01:04:07.870Z,998.54
2018-06-09T01:04:48.356Z,998.51
2018-06-09T01:05:28.922Z,998.5
2018-06-09T01:06:09.374Z,998.51
2018-06-09T01:06:49.909Z,998.51
2018-06-09T01:07:30.402Z,998.49
2018-06-09T01:08:10.888Z,998.55
2018-06-09T01:08:51.399Z,998.54
2018-06-09T01:09:31.908Z,998.56
2018-06-09T01:10:12.406Z,998.59
2018-06-09T01:10:52.886Z,998.56
2018-06-09T01:11:33.395Z,998.61
2018-06-09T01:12:13.892Z,998.56
2018-06-09T01:12:54.424Z,998.61
2018-06-09T01:13:34.921Z,998.64
2018-06-09T01:14:15.463Z,998.6
2018-06-09T01:14:55.959Z,998.56
2018-06-09T01:15:36.458Z,998.56
2018-06-09T01:16:16.980Z,998.56
2018-06-09T01:16:57.513Z,998.59
2018-06-09T01:17:37.979Z,998.62
2018-06-09T01:18:18.480Z,998.6
2018-06-09T01:18:58.975Z,998.57
2018-06-09T01:19:39.512Z,998.59
2018-06-09T01:20:19.969Z,998.62
2018-06-09T01:21:00.519Z,998.59
2018-06-09T01:21:41.038Z,998.61
2018-06-09T01:22:21.477Z,998.61
2018-06-09T01:23:01.959Z,998.67
2018-06-09T01:23:42.476Z,998.63
2018-06-09T01:24:22.955Z,998.66
2018-06-09T01:25:03.506Z,998.68
2018-06-09T01:25:44.080Z,998.65
2018-06-09T01:26:24.573Z,998.67
2018-06-09T01:27:05.089Z,998.64
2018-06-09T01:27:45.615Z,998.66
2018-06-09T01:28:26.052Z,998.67
2018-06-09T01:29:06.543Z,998.69
2018-06-09T01:29:47.055Z,998.71
2018-06-09T01:30:27.570Z,998.64
2018-06-09T01:31:08.059Z,998.68
2018-06-09T01:31:48.575Z,998.65
2018-06-09T01:32:29.056Z,998.68
2018-06-09T01:33:09.544Z,998.65
2018-06-09T01:33:50.005Z,998.69
2018-06-09T01:34:30.564Z,998.7
2018-06-09T01:35:11.029Z,998.71
2018-06-09T01:35:51.497Z,998.66
2018-06-09T01:36:31.937Z,998.69
2018-06-09T01:37:12.479Z,998.69
2018-06-09T01:37:52.927Z,998.66
2018-06-09T01:38:33.457Z,998.72
2018-06-09T01:39:13.934Z,998.71
2018-06-09T01:39:54.481Z,998.72
2018-06-09T01:40:34.940Z,998.65
2018-06-09T01:41:15.501Z,998.64
2018-06-09T01:41:56.055Z,998.66
2018-06-09T01:42:36.494Z,998.64
2018-06-09T01:43:17.031Z,998.64
2018-06-09T01:43:57.551Z,998.66
2018-06-09T01:44:38.090Z,998.61
2018-06-09T01:45:18.519Z,998.62
2018-06-09T01:45:59.048Z,998.62
2018-06-09T01:46:39.546Z,998.62
2018-06-09T01:47:20.009Z,998.62
2018-06-09T01:48:00.524Z,998.64
2018-06-09T01:48:41.021Z,998.57
2018-06-09T01:49:21.493Z,998.58
2018-06-09T01:50:01.990Z,998.56
2018-06-09T01:50:42.493Z,998.56
2018-06-09T01:51:22.952Z,998.57
2018-06-09T01:52:03.455Z,998.58
2018-06-09T01:52:43.936Z,998.61
2018-06-09T01:53:24.428Z,998.56
2018-06-09T01:54:04.859Z,998.6
2018-06-09T01:54:45.415Z,998.57
2018-06-09T01:55:25.902Z,998.66
2018-06-09T01:56:06.431Z,998.57
2018-06-09T01:56:46.935Z,998.62
2018-06-09T01:57:27.450Z,998.59
2018-06-09T01:58:07.920Z,998.6
2018-06-09T01:58:48.476Z,998.63
2018-06-09T01:59:28.977Z,998.62
2018-06-09T02:00:09.462Z,998.65
2018-06-09T02:00:49.920Z,998.66
2018-06-09T02:01:30.415Z,998.64
2018-06-09T02:02:10.933Z,998.66
2018-06-09T02:02:51.424Z,998.66
2018-06-09T02:03:31.941Z,998.62
2018-06-09T02:04:12.409Z,998.74
2018-06-09T02:04:52.930Z,998.65
2018-06-09T02:05:33.466Z,998.69
2018-06-09T02:06:13.950Z,998.65
2018-06-09T02:06:54.458Z,998.67
2018-06-09T02:07:34.951Z,998.65
2018-06-09T02:08:15.490Z,998.68
2018-06-09T02:08:55.970Z,998.69
2018-06-09T02:09:36.482Z,998.65
2018-06-09T02:10:17.001Z,998.66
2018-06-09T02:10:57.516Z,998.64
2018-06-09T02:11:38.072Z,998.65
2018-06-09T02:12:18.565Z,998.66
2018-06-09T02:12:59.052Z,998.64
2018-06-09T02:13:39.508Z,998.63
2018-06-09T02:14:20.169Z,998.66
2018-06-09T02:15:00.649Z,998.65
2018-06-09T02:15:41.155Z,998.68
2018-06-09T02:16:21.672Z,998.69
2018-06-09T02:17:02.120Z,998.69
2018-06-09T02:17:42.767Z,998.68
2018-06-09T02:18:23.238Z,998.67
2018-06-09T02:19:03.733Z,998.68
2018-06-09T02:19:44.196Z,998.69
2018-06-09T02:20:24.735Z,998.71
2018-06-09T02:21:05.236Z,998.72
2018-06-09T02:21:45.747Z,998.65
2018-06-09T02:22:26.451Z,998.69
2018-06-09T02:23:06.941Z,998.7
2018-06-09T02:23:47.438Z,998.71
2018-06-09T02:24:27.935Z,998.75
2018-06-09T02:25:08.424Z,998.73
2018-06-09T02:25:48.918Z,998.72
2018-06-09T02:26:29.357Z,998.73
2018-06-09T02:27:09.881Z,998.73
2018-06-09T02:27:50.347Z,998.73
2018-06-09T02:28:30.867Z,998.73
2018-06-09T02:29:11.327Z,998.77
2018-06-09T02:29:51.859Z,998.75
2018-06-09T02:30:33.220Z,998.73
2018-06-09T02:31:12.836Z,998.76
2018-06-09T02:31:53.334Z,998.79
2018-06-09T02:32:33.866Z,998.77
2018-06-09T02:33:14.423Z,998.76
2018-06-09T02:33:54.983Z,998.77
2018-06-09T02:34:35.443Z,998.74
2018-06-09T02:35:15.957Z,998.75
2018-06-09T02:35:56.397Z,998.78
2018-06-09T02:36:36.921Z,998.71
2018-06-09T02:37:17.382Z,998.71
2018-06-09T02:37:57.908Z,998.72
2018-06-09T02:38:38.460Z,998.69
2018-06-09T02:39:18.942Z,998.7
2018-06-09T02:39:59.434Z,998.63
2018-06-09T02:40:39.937Z,998.61
2018-06-09T02:41:20.451Z,998.64
2018-06-09T02:42:00.915Z,998.6
2018-06-09T02:42:41.415Z,998.6
2018-06-09T02:43:21.867Z,998.61
2018-06-09T02:44:02.427Z,998.6
2018-06-09T02:44:42.893Z,998.56
2018-06-09T02:45:23.434Z,998.56
2018-06-09T02:46:03.901Z,998.6
2018-06-09T02:46:44.405Z,998.57
2018-06-09T02:47:24.912Z,998.58
2018-06-09T02:48:05.411Z,998.56
2018-06-09T02:48:45.926Z,998.59
2018-06-09T02:49:26.428Z,998.57
2018-06-09T02:50:06.960Z,998.59
2018-06-09T02:50:47.425Z,998.6
2018-06-09T02:51:27.966Z,998.62
2018-06-09T02:52:08.422Z,998.6
2018-06-09T02:52:48.952Z,998.61
2018-06-09T02:53:29.443Z,998.66
2018-06-09T02:54:09.931Z,998.63
2018-06-09T02:54:50.473Z,998.56
2018-06-09T02:55:30.966Z,998.57
2018-06-09T02:56:11.464Z,998.62
2018-06-09T02:56:51.913Z,998.6
2018-06-09T02:57:32.432Z,998.68
2018-06-09T02:58:12.928Z,998.68
2018-06-09T02:58:53.434Z,998.7
2018-06-09T02:59:33.950Z,998.71
2018-06-09T03:00:14.489Z,998.68
2018-06-09T03:00:54.885Z,998.71
2018-06-09T03:01:35.414Z,998.64
2018-06-09T03:02:15.940Z,998.61
2018-06-09T03:02:56.365Z,998.65
2018-06-09T03:03:36.900Z,998.68
2018-06-09T03:04:17.404Z,998.66
2018-06-09T03:04:57.897Z,998.63
2018-06-09T03:05:38.525Z,998.62
2018-06-09T03:06:18.991Z,998.68
2018-06-09T03:06:59.437Z,998.65
2018-06-09T03:07:39.959Z,998.62
2018-06-09T03:08:20.450Z,998.65
2018-06-09T03:09:00.930Z,998.65
2018-06-09T03:09:41.404Z,998.67
2018-06-09T03:10:21.877Z,998.61
2018-06-09T03:11:02.494Z,998.6
2018-06-09T03:11:42.932Z,998.6
2018-06-09T03:12:23.426Z,998.62
2018-06-09T03:13:03.916Z,998.63
2018-06-09T03:13:44.410Z,998.62
2018-06-09T03:14:24.925Z,998.65
2018-06-09T03:15:05.458Z,998.64
2018-06-09T03:15:45.960Z,998.68
2018-06-09T03:16:26.467Z,998.72
2018-06-09T03:17:06.951Z,998.67
2018-06-09T03:17:47.498Z,998.71
2018-06-09T03:18:27.954Z,998.71
2018-06-09T03:19:08.424Z,998.71
2018-06-09T03:19:48.901Z,998.7
2018-06-09T03:20:29.378Z,998.72
2018-06-09T03:21:09.896Z,998.73
2018-06-09T03:21:50.360Z,998.72
2018-06-09T03:22:30.861Z,998.69
2018-06-09T03:23:11.361Z,998.72
2018-06-09T03:23:51.873Z,998.7
2018-06-09T03:24:32.376Z,998.7
2018-06-09T03:25:13.015Z,998.69
2018-06-09T03:25:53.470Z,998.7
2018-06-09T03:26:33.938Z,998.7
2018-06-09T03:27:14.451Z,998.69
2018-06-09T03:27:54.956Z,998.75
2018-06-09T03:28:35.458Z,998.74
2018-06-09T03:29:15.951Z,998.75
2018-06-09T03:29:56.446Z,998.72
2018-06-09T03:30:37.008Z,998.78
2018-06-09T03:31:17.442Z,998.82
2018-06-09T03:31:57.972Z,998.83
2018-06-09T03:32:38.509Z,998.79
2018-06-09T03:33:18.930Z,998.85
2018-06-09T03:33:59.456Z,998.85
2018-06-09T03:34:39.962Z,998.85
2018-06-09T03:35:20.475Z,998.87
2018-06-09T03:36:01.010Z,998.85
2018-06-09T03:36:41.487Z,998.89
2018-06-09T03:37:21.996Z,998.89
2018-06-09T03:38:02.470Z,998.89
2018-06-09T03:38:42.927Z,998.84
2018-06-09T03:39:23.503Z,998.88
2018-06-09T03:40:03.897Z,998.87
2018-06-09T03:40:44.393Z,998.92
2018-06-09T03:41:24.853Z,998.84
2018-06-09T03:42:05.423Z,998.84
2018-06-09T03:42:45.922Z,998.82
2018-06-09T03:43:26.457Z,998.86
2018-06-09T03:44:06.916Z,998.87
2018-06-09T03:44:47.375Z,998.86
2018-06-09T03:45:27.917Z,998.93
2018-06-09T03:46:08.425Z,998.94
2018-06-09T03:46:48.904Z,998.92
2018-06-09T03:47:29.373Z,998.96
2018-06-09T03:48:09.868Z,998.95
2018-06-09T03:48:50.417Z,998.99
2018-06-09T03:49:30.895Z,999
2018-06-09T03:50:11.340Z,999
2018-06-09T03:50:51.869Z,999.04
2018-06-09T03:51:32.380Z,999.01
2018-06-09T03:52:12.869Z,999.04
2018-06-09T03:52:53.396Z,999.03
2018-06-09T03:53:33.900Z,999
2018-06-09T03:54:14.377Z,998.99
2018-06-09T03:54:54.988Z,999.01
2018-06-09T03:55:35.472Z,998.96
2018-06-09T03:56:15.955Z,999.03
2018-06-09T03:56:56.431Z,999.01
2018-06-09T03:57:36.984Z,998.99
2018-06-09T03:58:17.539Z,998.99
2018-06-09T03:58:58.028Z,999
2018-06-09T03:59:38.532Z,999.01
2018-06-09T04:00:19.066Z,998.99
2018-06-09T04:00:59.544Z,999.02
2018-06-09T04:01:40.126Z,999.01
2018-06-09T04:02:20.547Z,999
2018-06-09T04:03:01.029Z,999.05
2018-06-09T04:03:41.536Z,999.02
2018-06-09T04:04:22.041Z,999.03
2018-06-09T04:05:02.492Z,999.04
2018-06-09T04:05:43.024Z,999.05
2018-06-09T04:06:23.527Z,999.12
2018-06-09T04:07:05.853Z,999.14
2018-06-09T04:07:46.302Z,999.1
2018-06-09T04:08:26.744Z,999.14
2018-06-09T04:09:07.277Z,999.14
2018-06-09T04:09:47.775Z,999.12
2018-06-09T04:10:28.301Z,999.1
2018-06-09T04:11:08.926Z,999.12
2018-06-09T04:11:49.472Z,999.16
2018-06-09T04:12:29.993Z,999.11
2018-06-09T04:13:10.481Z,999.12
2018-06-09T04:13:50.950Z,999.11
2018-06-09T04:14:31.468Z,999.12
2018-06-09T04:15:11.982Z,999.1
2018-06-09T04:15:52.446Z,999.11
2018-06-09T04:16:32.872Z,999.12
2018-06-09T04:17:13.390Z,999.15
2018-06-09T04:17:53.868Z,999.12
2018-06-09T04:18:34.370Z,999.17
2018-06-09T04:19:14.872Z,999.17
2018-06-09T04:19:55.369Z,999.17
2018-06-09T04:20:35.913Z,999.18
2018-06-09T04:21:16.420Z,999.16
2018-06-09T04:21:56.946Z,999.2
2018-06-09T04:22:37.458Z,999.2
2018-06-09T04:23:17.924Z,999.22
2018-06-09T04:23:58.462Z,999.25
2018-06-09T04:24:38.976Z,999.28
2018-06-09T04:25:19.469Z,999.27
2018-06-09T04:25:59.973Z,999.3
2018-06-09T04:26:40.542Z,999.25
2018-06-09T04:27:20.964Z,999.25
2018-06-09T04:28:01.487Z,999.24
2018-06-09T04:28:41.977Z,999.23
2018-06-09T04:29:22.458Z,999.19
2018-06-09T04:30:02.912Z,999.17
2018-06-09T04:30:43.447Z,999.2
2018-06-09T04:31:23.929Z,999.18
2018-06-09T04:32:04.447Z,999.19
2018-06-09T04:32:44.936Z,999.17
2018-06-09T04:33:25.400Z,999.15
2018-06-09T04:34:05.860Z,999.15
2018-06-09T04:34:46.363Z,999.14
2018-06-09T04:35:26.863Z,999.15
2018-06-09T04:36:07.365Z,999.15
2018-06-09T04:36:47.957Z,999.13
2018-06-09T04:37:28.457Z,999.17
2018-06-09T04:38:08.925Z,999.14
2018-06-09T04:38:49.476Z,999.18
2018-06-09T04:39:30.017Z,999.13
2018-06-09T04:40:10.499Z,999.19
2018-06-09T04:40:51.048Z,999.21
2018-06-09T04:41:31.576Z,999.16
2018-06-09T04:42:12.056Z,999.17
2018-06-09T04:42:52.523Z,999.22
2018-06-09T04:43:32.976Z,999.21
2018-06-09T04:44:13.457Z,999.27
2018-06-09T04:44:54.046Z,999.25
2018-06-09T04:45:34.492Z,999.28
2018-06-09T04:46:15.029Z,999.29
2018-06-09T04:46:55.467Z,999.29
2018-06-09T04:47:35.985Z,999.27
2018-06-09T04:48:16.437Z,999.29
2018-06-09T04:48:56.922Z,999.25
2018-06-09T04:49:37.436Z,999.27
2018-06-09T04:50:17.921Z,999.27
2018-06-09T04:50:58.443Z,999.29
2018-06-09T04:51:38.944Z,999.25
2018-06-09T04:52:19.427Z,999.24
2018-06-09T04:52:59.917Z,999.27
2018-06-09T04:53:40.430Z,999.27
2018-06-09T04:54:20.982Z,999.25
2018-06-09T04:55:01.441Z,999.24
2018-06-09T04:55:41.935Z,999.27
2018-06-09T04:56:22.423Z,999.26
2018-06-09T04:57:02.882Z,999.24
2018-06-09T04:57:43.422Z,999.23
2018-06-09T04:58:23.965Z,999.25
2018-06-09T04:59:04.408Z,999.25
2018-06-09T04:59:44.891Z,999.26
2018-06-09T05:00:25.429Z,999.27
2018-06-09T05:01:05.931Z,999.27
2018-06-09T05:01:46.431Z,999.25
2018-06-09T05:02:26.974Z,999.26
2018-06-09T05:03:07.550Z,999.3
2018-06-09T05:03:48.023Z,999.27
2018-06-09T05:04:28.482Z,999.26
2018-06-09T05:05:09.318Z,999.28
2018-06-09T05:05:49.672Z,999.27
2018-06-09T05:06:30.204Z,999.3
2018-06-09T05:07:10.748Z,999.29
2018-06-09T05:07:51.163Z,999.3
2018-06-09T05:08:31.668Z,999.32
2018-06-09T05:09:12.120Z,999.29
2018-06-09T05:09:52.625Z,999.32
2018-06-09T05:10:33.272Z,999.32
2018-06-09T05:11:13.705Z,999.33
2018-06-09T05:11:54.222Z,999.33
2018-06-09T05:12:34.715Z,999.33
2018-06-09T05:13:15.270Z,999.46
2018-06-09T05:13:55.753Z,999.4
2018-06-09T05:14:36.240Z,999.46
2018-06-09T05:15:16.843Z,999.44
2018-06-09T05:15:57.310Z,999.47
2018-06-09T05:16:37.831Z,999.46
2018-06-09T05:17:18.320Z,999.47
2018-06-09T05:17:58.791Z,999.46
2018-06-09T05:18:39.320Z,999.48
2018-06-09T05:19:19.892Z,999.49
2018-06-09T05:20:00.392Z,999.47
2018-06-09T05:20:40.971Z,999.45
2018-06-09T05:21:21.527Z,999.41
2018-06-09T05:22:02.016Z,999.41
2018-06-09T05:22:42.572Z,999.4
2018-06-09T05:23:23.036Z,999.37
2018-06-09T05:24:03.527Z,999.37
2018-06-09T05:24:44.050Z,999.32
2018-06-09T05:25:24.574Z,999.36
2018-06-09T05:26:05.047Z,999.33
2018-06-09T05:26:45.531Z,999.38
2018-06-09T05:27:26.034Z,999.41
2018-06-09T05:28:06.559Z,999.37
2018-06-09T05:28:47.014Z,999.37
2018-06-09T05:29:27.481Z,999.42
2018-06-09T05:30:08.023Z,999.47
2018-06-09T05:30:48.514Z,999.45
2018-06-09T05:31:28.988Z,999.45
2018-06-09T05:32:09.490Z,999.47
2018-06-09T05:32:50.017Z,999.48
2018-06-09T05:33:30.477Z,999.5
2018-06-09T05:34:11.009Z,999.49
2018-06-09T05:34:51.465Z,999.51
2018-06-09T05:35:31.977Z,999.48
2018-06-09T05:36:12.550Z,999.5
2018-06-09T05:36:53.038Z,999.56
2018-06-09T05:37:33.525Z,999.59
2018-06-09T05:38:14.239Z,999.56
2018-06-09T05:38:54.590Z,999.58
2018-06-09T05:39:35.068Z,999.6
2018-06-09T05:40:15.548Z,999.62
2018-06-09T05:40:56.056Z,999.57
2018-06-09T05:41:36.542Z,999.58
2018-06-09T05:42:17.082Z,999.59
2018-06-09T05:42:57.544Z,999.6
2018-06-09T05:43:38.048Z,999.56
2018-06-09T05:44:18.620Z,999.54
2018-06-09T05:44:59.085Z,999.54
2018-06-09T05:45:39.572Z,999.6
2018-06-09T05:46:20.092Z,999.59
2018-06-09T05:47:00.543Z,999.57
2018-06-09T05:47:41.028Z,999.6
2018-06-09T05:48:21.657Z,999.6
2018-06-09T05:49:02.088Z,999.61
2018-06-09T05:49:42.648Z,999.63
2018-06-09T05:50:23.946Z,999.59
2018-06-09T05:51:04.464Z,999.6
2018-06-09T05:51:44.950Z,999.63
2018-06-09T05:52:25.441Z,999.59
2018-06-09T05:53:06.539Z,999.59
2018-06-09T05:54:02.859Z,999.58
2018-06-09T05:54:43.490Z,999.6
2018-06-09T05:55:24.039Z,999.57
2018-06-09T05:56:04.504Z,999.56
2018-06-09T05:56:45.111Z,999.6
2018-06-09T05:57:25.675Z,999.57
2018-06-09T05:58:06.144Z,999.6
2018-06-09T05:58:46.661Z,999.58
2018-06-09T05:59:27.205Z,999.57
2018-06-09T06:00:07.701Z,999.59
2018-06-09T06:00:48.111Z,999.6
2018-06-09T06:01:28.654Z,999.57
2018-06-09T06:02:09.161Z,999.56
2018-06-09T06:02:49.714Z,999.56
2018-06-09T06:03:30.138Z,999.56
2018-06-09T06:04:10.626Z,999.6
2018-06-09T06:04:51.183Z,999.59
2018-06-09T06:05:31.686Z,999.61
2018-06-09T06:06:12.215Z,999.6
2018-06-09T06:06:52.695Z,999.6
2018-06-09T06:07:33.167Z,999.63
2018-06-09T06:09:51.607Z,999.64
2018-06-09T06:10:32.250Z,999.62
2018-06-09T06:11:12.767Z,999.67
2018-06-09T06:11:53.296Z,999.65
2018-06-09T06:12:33.744Z,999.65
2018-06-09T06:13:14.283Z,999.68
2018-06-09T06:13:54.913Z,999.66
2018-06-09T06:14:35.290Z,999.68
2018-06-09T06:15:15.957Z,999.68
2018-06-09T06:17:45.105Z,999.71
2018-06-09T06:18:26.017Z,999.74
2018-06-09T06:19:06.328Z,999.75
2018-06-09T06:19:46.918Z,999.72
2018-06-09T06:20:27.516Z,999.72
2018-06-09T06:21:08.623Z,999.76
2018-06-09T06:21:48.825Z,999.73
2018-06-09T06:22:29.444Z,999.76
2018-06-09T06:23:11.113Z,999.73
2018-06-09T06:25:04.790Z,999.68
2018-06-09T06:25:45.935Z,999.7
2018-06-09T06:26:32.378Z,999.73
2018-06-09T06:28:27.363Z,999.75
2018-06-09T06:29:07.902Z,999.78
2018-06-09T06:29:48.633Z,999.75
2018-06-09T06:30:30.106Z,999.79
2018-06-09T06:31:10.620Z,999.75
2018-06-09T06:31:50.986Z,999.77
2018-06-09T06:32:31.458Z,999.76
2018-06-09T06:33:11.958Z,999.74
2018-06-09T06:33:52.384Z,999.79
2018-06-09T06:34:33.136Z,999.8
2018-06-09T06:35:14.301Z,999.78
2018-06-09T06:37:13.544Z,999.78
2018-06-09T06:37:54.356Z,999.77
2018-06-09T06:38:34.973Z,999.77
2018-06-09T06:39:15.550Z,999.76
2018-06-09T06:39:56.001Z,999.74
2018-06-09T06:40:36.541Z,999.78
2018-06-09T06:41:17.242Z,999.74
2018-06-09T06:41:57.718Z,999.77
2018-06-09T06:42:38.508Z,999.72
2018-06-09T06:43:19.027Z,999.72
2018-06-09T06:43:59.520Z,999.75
2018-06-09T06:44:40.117Z,999.8
2018-06-09T06:45:21.158Z,999.78
2018-06-09T06:46:01.632Z,999.83
2018-06-09T06:46:42.844Z,999.81
2018-06-09T06:47:24.013Z,999.84
2018-06-09T06:48:06.761Z,999.84
2018-06-09T06:50:08.366Z,999.87
2018-06-09T06:50:48.898Z,999.81
2018-06-09T06:51:29.440Z,999.83
2018-06-09T06:52:10.228Z,999.86
2018-06-09T06:52:50.860Z,999.83
2018-06-09T06:53:31.380Z,999.86
2018-06-09T06:54:11.863Z,999.83
2018-06-09T06:54:52.607Z,999.83
2018-06-09T06:55:32.857Z,999.81
2018-06-09T06:56:13.361Z,999.8
2018-06-09T06:56:54.779Z,999.83
2018-06-09T06:57:34.505Z,999.82
2018-06-09T06:58:14.962Z,999.82
2018-06-09T06:58:55.506Z,999.81
2018-06-09T06:59:36.008Z,999.82
2018-06-09T07:00:16.519Z,999.81
2018-06-09T07:00:57.286Z,999.74
2018-06-09T07:01:37.807Z,999.73
2018-06-09T07:02:18.282Z,999.77
2018-06-09T07:02:58.817Z,999.74
2018-06-09T07:03:39.284Z,999.8
2018-06-09T07:04:19.796Z,999.72
2018-06-09T07:05:00.586Z,999.79
2018-06-09T07:05:40.918Z,999.76
2018-06-09T07:06:21.524Z,999.76
2018-06-09T07:07:01.982Z,999.75
2018-06-09T07:07:42.549Z,999.75
2018-06-09T07:08:23.128Z,999.73
2018-06-09T07:09:03.733Z,999.71
2018-06-09T07:09:44.226Z,999.72
2018-06-09T07:10:24.733Z,999.72
2018-06-09T07:11:05.258Z,999.75
2018-06-09T07:11:46.143Z,999.74
2018-06-09T07:12:26.667Z,999.73
2018-06-09T07:13:07.075Z,999.72
2018-06-09T07:13:47.624Z,999.76
2018-06-09T07:14:28.174Z,999.79
2018-06-09T07:15:08.619Z,999.85
2018-06-09T07:15:49.103Z,999.83
2018-06-09T07:16:29.624Z,999.86
2018-06-09T07:17:10.274Z,999.87
2018-06-09T07:17:50.912Z,999.88
2018-06-09T07:18:31.383Z,999.88
2018-06-09T07:19:11.888Z,999.89
2018-06-09T07:19:52.370Z,999.91
2018-06-09T07:20:32.863Z,999.91
2018-06-09T07:21:13.345Z,999.91
2018-06-09T07:21:53.834Z,999.87
2018-06-09T07:22:34.420Z,999.89
2018-06-09T07:23:14.862Z,999.88
2018-06-09T07:23:55.416Z,999.84
2018-06-09T07:24:35.946Z,999.83
2018-06-09T07:25:16.720Z,999.83
2018-06-09T07:25:57.335Z,999.78
2018-06-09T07:26:37.827Z,999.81
2018-06-09T07:27:18.376Z,999.78
2018-06-09T07:27:58.877Z,999.82
2018-06-09T07:28:39.356Z,999.79
2018-06-09T07:29:19.887Z,999.78
2018-06-09T07:30:00.420Z,999.81
2018-06-09T07:30:40.870Z,999.84
2018-06-09T07:31:21.401Z,999.83
2018-06-09T07:32:01.918Z,999.83
2018-06-09T07:32:42.374Z,999.79
2018-06-09T07:33:22.869Z,999.83
2018-06-09T07:34:04.603Z,999.83
2018-06-09T07:34:45.173Z,999.85
2018-06-09T07:35:26.116Z,999.84
2018-06-09T07:36:06.768Z,999.86
2018-06-09T07:36:47.251Z,999.81
2018-06-09T07:37:27.865Z,999.83
2018-06-09T07:38:08.445Z,999.8
2018-06-09T07:38:49.024Z,999.78
2018-06-09T07:39:29.556Z,999.79
2018-06-09T07:40:10.005Z,999.76
2018-06-09T07:40:50.724Z,999.75
2018-06-09T07:41:30.998Z,999.74
2018-06-09T07:42:11.540Z,999.77
2018-06-09T07:42:52.117Z,999.73
2018-06-09T07:43:32.594Z,999.71
2018-06-09T07:44:13.023Z,999.71
2018-06-09T07:44:53.678Z,999.77
2018-06-09T07:45:34.227Z,999.75
2018-06-09T07:46:14.710Z,999.81
2018-06-09T07:46:55.328Z,999.79
2018-06-09T07:47:35.785Z,999.83
2018-06-09T07:48:16.275Z,999.8
2018-06-09T07:48:56.840Z,999.81
2018-06-09T07:49:37.247Z,999.82
2018-06-09T07:50:17.766Z,999.82
2018-06-09T07:50:58.344Z,999.79
2018-06-09T07:51:38.955Z,999.74
2018-06-09T07:52:19.495Z,999.76
2018-06-09T07:53:00.470Z,999.72
2018-06-09T07:53:41.169Z,999.71
2018-06-09T07:54:21.676Z,999.69
2018-06-09T07:55:05.214Z,999.69
2018-06-09T07:55:49.347Z,999.69
2018-06-09T07:56:30.710Z,999.67
2018-06-09T07:57:12.893Z,999.72
2018-06-09T07:57:52.900Z,999.72
2018-06-09T07:58:33.505Z,999.69
2018-06-09T07:59:14.069Z,999.7
2018-06-09T07:59:55.205Z,999.71
2018-06-09T08:00:35.644Z,999.79
2018-06-09T08:01:16.136Z,999.76
2018-06-09T08:01:56.917Z,999.78
2018-06-09T08:02:39.362Z,999.78
2018-06-09T08:03:19.554Z,999.73
2018-06-09T08:04:00.090Z,999.74
2018-06-09T08:04:40.924Z,999.77
2018-06-09T08:05:22.118Z,999.77
2018-06-09T08:06:01.951Z,999.75
2018-06-09T08:06:42.455Z,999.77
2018-06-09T08:07:22.980Z,999.78
2018-06-09T08:08:03.570Z,999.8
2018-06-09T08:08:44.049Z,999.75
2018-06-09T08:09:25.868Z,999.8
2018-06-09T08:10:05.216Z,999.83
2018-06-09T08:10:45.858Z,999.85
2018-06-09T08:11:26.580Z,999.86
2018-06-09T08:12:07.108Z,999.83
2018-06-09T08:12:47.577Z,999.82
2018-06-09T08:13:28.074Z,999.82
2018-06-09T08:14:08.779Z,999.81
2018-06-09T08:14:49.117Z,999.82
2018-06-09T08:15:29.604Z,999.77
2018-06-09T08:16:10.113Z,999.75
2018-06-09T08:16:50.765Z,999.77
2018-06-09T08:17:31.287Z,999.73
2018-06-09T08:18:11.763Z,999.7
2018-06-09T08:18:52.359Z,999.73
2018-06-09T08:19:32.890Z,999.76
2018-06-09T08:20:13.531Z,999.77
2018-06-09T08:20:54.045Z,999.69
2018-06-09T08:21:34.541Z,999.73
2018-06-09T08:22:15.072Z,999.7
2018-06-09T08:22:55.514Z,999.72
2018-06-09T08:23:36.380Z,999.73
2018-06-09T08:24:16.662Z,999.73
2018-06-09T08:24:57.606Z,999.72
2018-06-09T08:25:38.063Z,999.7
2018-06-09T08:26:18.574Z,999.74
2018-06-09T08:26:59.142Z,999.71
2018-06-09T08:27:40.789Z,999.73
2018-06-09T08:28:21.449Z,999.69
2018-06-09T08:29:02.047Z,999.68
2018-06-09T08:29:42.476Z,999.7
2018-06-09T08:30:22.978Z,999.67
2018-06-09T08:31:03.495Z,999.7
2018-06-09T08:31:44.074Z,999.7
2018-06-09T08:32:30.612Z,999.69
2018-06-09T08:33:15.047Z,999.66
2018-06-09T08:34:11.224Z,999.72
2018-06-09T08:34:52.731Z,999.71
2018-06-09T08:40:09.410Z,999.59
2018-06-09T08:40:50.658Z,999.54
2018-06-09T08:41:39.905Z,999.59
2018-06-09T08:52:21.622Z,999.47